sensor_id;sensor_type;location;lat;lon;timestamp;pressure;altitude;pressure_sealevel;temperature;humidity
61324;BME280;47203;48.428;11.974;2023-02-18T00:01:07;97608.16;;;16.41;44.91
61324;BME280;47203;48.428;11.974;2023-02-18T00:03:12;97607.16;;;16.37;45.13
61324;BME280;47203;48.428;11.974;2023-02-18T00:05:17;97610.09;;;16.35;45.19
61324;BME280;47203;48.428;11.974;2023-02-18T00:07:22;97607.16;;;16.37;45.09
61324;BME280;47203;48.428;11.974;2023-02-18T00:09:26;97602.91;;;16.36;45.12
61324;BME280;47203;48.428;11.974;2023-02-18T00:11:32;97599.97;;;16.37;45.07
61324;BME280;47203;48.428;11.974;2023-02-18T00:13:37;97586.97;;;16.36;45.05
61324;BME280;47203;48.428;11.974;2023-02-18T00:15:44;97586.44;;;16.34;45.56
61324;BME280;47203;48.428;11.974;2023-02-18T00:17:49;97582.50;;;16.31;45.25
61324;BME280;47203;48.428;11.974;2023-02-18T00:19:53;97588.59;;;16.32;45.47
61324;BME280;47203;48.428;11.974;2023-02-18T00:21:58;97587.00;;;16.31;45.31
61324;BME280;47203;48.428;11.974;2023-02-18T00:24:03;97586.22;;;16.30;45.53
61324;BME280;47203;48.428;11.974;2023-02-18T00:26:09;97590.75;;;16.30;45.48
61324;BME280;47203;48.428;11.974;2023-02-18T00:28:14;97586.50;;;16.29;45.15
61324;BME280;47203;48.428;11.974;2023-02-18T00:30:19;97591.53;;;16.30;45.28
61324;BME280;47203;48.428;11.974;2023-02-18T00:32:26;97584.63;;;16.29;45.57
61324;BME280;47203;48.428;11.974;2023-02-18T00:34:32;97589.66;;;16.31;45.17
61324;BME280;47203;48.428;11.974;2023-02-18T00:36:37;97596.28;;;16.33;45.50
61324;BME280;47203;48.428;11.974;2023-02-18T00:38:43;97597.06;;;16.34;45.40
61324;BME280;47203;48.428;11.974;2023-02-18T00:40:47;97583.78;;;16.34;45.19
61324;BME280;47203;48.428;11.974;2023-02-18T00:42:52;97593.13;;;16.31;45.35
61324;BME280;47203;48.428;11.974;2023-02-18T00:44:56;97596.84;;;16.30;45.19
61324;BME280;47203;48.428;11.974;2023-02-18T00:47:01;97591.53;;;16.30;45.27
61324;BME280;47203;48.428;11.974;2023-02-18T00:49:08;97593.13;;;16.31;45.27
61324;BME280;47203;48.428;11.974;2023-02-18T00:51:14;97593.13;;;16.31;45.12
61324;BME280;47203;48.428;11.974;2023-02-18T00:53:21;97595.50;;;16.33;45.36
61324;BME280;47203;48.428;11.974;2023-02-18T00:55:26;97591.75;;;16.34;45.27
61324;BME280;47203;48.428;11.974;2023-02-18T00:57:31;97592.28;;;16.36;45.56
61324;BME280;47203;48.428;11.974;2023-02-18T00:59:35;97587.47;;;16.38;45.21
61324;BME280;47203;48.428;11.974;2023-02-18T01:01:40;97586.13;;;16.40;45.28
61324;BME280;47203;48.428;11.974;2023-02-18T01:03:45;97581.59;;;16.41;45.09
61324;BME280;47203;48.428;11.974;2023-02-18T01:05:52;97583.97;;;16.43;45.39
61324;BME280;47203;48.428;11.974;2023-02-18T01:07:56;97584.22;;;16.46;44.98
61324;BME280;47203;48.428;11.974;2023-02-18T01:10:03;97584.22;;;16.46;44.98
61324;BME280;47203;48.428;11.974;2023-02-18T01:12:08;97588.47;;;16.47;45.23
61324;BME280;47203;48.428;11.974;2023-02-18T01:14:13;97587.66;;;16.47;45.22
61324;BME280;47203;48.428;11.974;2023-02-18T01:16:18;97590.31;;;16.47;45.28
61324;BME280;47203;48.428;11.974;2023-02-18T01:18:23;97585.81;;;16.47;45.10
61324;BME280;47203;48.428;11.974;2023-02-18T01:20:29;97584.72;;;16.48;45.49
61324;BME280;47203;48.428;11.974;2023-02-18T01:22:37;97579.94;;;16.50;44.96
61324;BME280;47203;48.428;11.974;2023-02-18T01:24:41;97570.63;;;16.53;45.40
61324;BME280;47203;48.428;11.974;2023-02-18T01:26:46;97581.75;;;16.55;45.34
61324;BME280;47203;48.428;11.974;2023-02-18T01:28:51;97580.38;;;16.57;45.02
61324;BME280;47203;48.428;11.974;2023-02-18T01:30:55;97578.50;;;16.58;45.16
61324;BME280;47203;48.428;11.974;2023-02-18T01:33:00;97579.88;;;16.55;44.96
61324;BME280;47203;48.428;11.974;2023-02-18T01:35:05;97575.94;;;16.53;45.00
61324;BME280;47203;48.428;11.974;2023-02-18T01:37:10;97570.88;;;16.51;45.46
61324;BME280;47203;48.428;11.974;2023-02-18T01:39:17;97567.16;;;16.52;45.24
61324;BME280;47203;48.428;11.974;2023-02-18T01:41:22;97555.44;;;16.53;45.12
61324;BME280;47203;48.428;11.974;2023-02-18T01:43:28;97559.69;;;16.54;45.13
61324;BME280;47203;48.428;11.974;2023-02-18T01:45:46;97560.47;;;16.55;45.16
61324;BME280;47203;48.428;11.974;2023-02-18T01:47:52;97549.84;;;16.55;45.03
61324;BME280;47203;48.428;11.974;2023-02-18T01:49:57;97552.00;;;16.53;45.45
61324;BME280;47203;48.428;11.974;2023-02-18T01:52:02;97561.03;;;16.52;44.96
61324;BME280;47203;48.428;11.974;2023-02-18T01:54:08;97556.78;;;16.51;45.42
61324;BME280;47203;48.428;11.974;2023-02-18T01:56:18;97548.03;;;16.50;45.35
61324;BME280;47203;48.428;11.974;2023-02-18T01:58:24;97557.09;;;16.49;45.18
61324;BME280;47203;48.428;11.974;2023-02-18T02:00:29;97539.53;;;16.48;45.22
61324;BME280;47203;48.428;11.974;2023-02-18T02:02:34;97536.16;;;16.43;45.52
61324;BME280;47203;48.428;11.974;2023-02-18T02:04:40;97544.97;;;16.38;45.51
61324;BME280;47203;48.428;11.974;2023-02-18T02:06:44;97529.59;;;16.35;45.23
61324;BME280;47203;48.428;11.974;2023-02-18T02:08:50;97531.75;;;16.33;45.25
61324;BME280;47203;48.428;11.974;2023-02-18T02:11:01;97528.56;;;16.31;45.52
61324;BME280;47203;48.428;11.974;2023-02-18T02:13:12;97520.88;;;16.29;45.64
61324;BME280;47203;48.428;11.974;2023-02-18T02:15:27;97524.06;;;16.31;45.78
61324;BME280;47203;48.428;11.974;2023-02-18T02:17:36;97522.69;;;16.34;45.37
61324;BME280;47203;48.428;11.974;2023-02-18T02:20:01;97523.22;;;16.36;45.46
61324;BME280;47203;48.428;11.974;2023-02-18T02:24:46;97517.63;;;16.37;45.56
61324;BME280;47203;48.428;11.974;2023-02-18T02:29:28;97522.59;;;16.44;45.25
61324;BME280;47203;48.428;11.974;2023-02-18T02:31:44;97520.94;;;16.48;45.36
61324;BME280;47203;48.428;11.974;2023-02-18T02:33:59;97522.25;;;16.51;45.34
61324;BME280;47203;48.428;11.974;2023-02-18T02:36:08;97525.44;;;16.53;45.32
61324;BME280;47203;48.428;11.974;2023-02-18T02:38:17;97525.44;;;16.53;45.40
61324;BME280;47203;48.428;11.974;2023-02-18T02:40:23;97513.72;;;16.54;45.51
61324;BME280;47203;48.428;11.974;2023-02-18T02:42:34;97516.09;;;16.55;45.11
61324;BME280;47203;48.428;11.974;2023-02-18T02:44:43;97512.66;;;16.55;45.37
61324;BME280;47203;48.428;11.974;2023-02-18T02:46:51;97506.56;;;16.54;45.12
61324;BME280;47203;48.428;11.974;2023-02-18T02:48:57;97508.91;;;16.56;45.54
61324;BME280;47203;48.428;11.974;2023-02-18T02:51:10;97508.63;;;16.57;45.60
61324;BME280;47203;48.428;11.974;2023-02-18T02:53:17;97509.41;;;16.58;45.52
61324;BME280;47203;48.428;11.974;2023-02-18T02:55:25;97498.78;;;16.58;45.11
61324;BME280;47203;48.428;11.974;2023-02-18T02:57:44;97498.22;;;16.61;45.31
61324;BME280;47203;48.428;11.974;2023-02-18T02:59:54;97504.06;;;16.63;45.48
61324;BME280;47203;48.428;11.974;2023-02-18T03:02:07;97508.28;;;16.64;45.45
61324;BME280;47203;48.428;11.974;2023-02-18T03:04:22;97493.16;;;16.65;45.11
61324;BME280;47203;48.428;11.974;2023-02-18T03:06:38;97488.38;;;16.62;45.47
61324;BME280;47203;48.428;11.974;2023-02-18T03:08:46;97506.97;;;16.62;45.21
61324;BME280;47203;48.428;11.974;2023-02-18T03:10:55;97508.06;;;16.61;44.99
61324;BME280;47203;48.428;11.974;2023-02-18T03:13:06;97503.03;;;16.59;45.25
61324;BME280;47203;48.428;11.974;2023-02-18T03:15:16;97494.81;;;16.55;45.40
61324;BME280;47203;48.428;11.974;2023-02-18T03:17:25;97503.38;;;16.52;45.45
61324;BME280;47203;48.428;11.974;2023-02-18T03:19:34;97504.44;;;16.51;45.37
61324;BME280;47203;48.428;11.974;2023-02-18T03:21:46;97499.69;;;16.48;45.36
61324;BME280;47203;48.428;11.974;2023-02-18T03:23:52;97499.97;;;16.47;45.56
61324;BME280;47203;48.428;11.974;2023-02-18T03:26:00;97504.22;;;16.48;45.65
61324;BME280;47203;48.428;11.974;2023-02-18T03:28:07;97506.88;;;16.48;45.48
61324;BME280;47203;48.428;11.974;2023-02-18T03:30:15;97503.94;;;16.49;45.67
61324;BME280;47203;48.428;11.974;2023-02-18T03:32:21;97503.66;;;16.51;45.56
61324;BME280;47203;48.428;11.974;2023-02-18T03:34:27;97504.19;;;16.53;45.59
61324;BME280;47203;48.428;11.974;2023-02-18T03:36:33;97498.06;;;16.52;45.41
61324;BME280;47203;48.428;11.974;2023-02-18T03:38:43;97497.00;;;16.53;45.65
61324;BME280;47203;48.428;11.974;2023-02-18T03:40:48;97494.03;;;16.55;45.12
61324;BME280;47203;48.428;11.974;2023-02-18T03:42:55;97490.31;;;16.56;45.46
61324;BME280;47203;48.428;11.974;2023-02-18T03:44:59;97493.75;;;16.56;45.36
61324;BME280;47203;48.428;11.974;2023-02-18T03:47:04;97483.91;;;16.57;45.19
61324;BME280;47203;48.428;11.974;2023-02-18T03:49:09;97482.34;;;16.56;45.26
61324;BME280;47203;48.428;11.974;2023-02-18T03:51:14;97476.22;;;16.55;45.46
61324;BME280;47203;48.428;11.974;2023-02-18T03:53:19;97478.38;;;16.53;45.61
61324;BME280;47203;48.428;11.974;2023-02-18T03:55:26;97485.28;;;16.54;45.16
61324;BME280;47203;48.428;11.974;2023-02-18T03:57:31;97491.16;;;16.51;45.19
61324;BME280;47203;48.428;11.974;2023-02-18T03:59:36;97490.66;;;16.49;45.52
61324;BME280;47203;48.428;11.974;2023-02-18T04:01:40;97493.88;;;16.46;45.73
61324;BME280;47203;48.428;11.974;2023-02-18T04:03:45;97494.44;;;16.43;45.64
61324;BME280;47203;48.428;11.974;2023-02-18T04:05:49;97491.78;;;16.43;45.58
61324;BME280;47203;48.428;11.974;2023-02-18T04:07:54;97488.31;;;16.43;45.60
61324;BME280;47203;48.428;11.974;2023-02-18T04:09:58;97494.94;;;16.45;45.59
61324;BME280;47203;48.428;11.974;2023-02-18T04:12:05;97491.50;;;16.45;45.73
61324;BME280;47203;48.428;11.974;2023-02-18T04:14:10;97507.22;;;16.41;45.43
61324;BME280;47203;48.428;11.974;2023-02-18T04:16:16;97499.81;;;16.38;45.64
61324;BME280;47203;48.428;11.974;2023-02-18T04:18:21;97497.16;;;16.38;45.71
61324;BME280;47203;48.428;11.974;2023-02-18T04:20:26;97496.94;;;16.34;45.67
61324;BME280;47203;48.428;11.974;2023-02-18T04:22:31;97488.72;;;16.31;45.64
61324;BME280;47203;48.428;11.974;2023-02-18T04:24:35;97488.22;;;16.29;45.82
61324;BME280;47203;48.428;11.974;2023-02-18T04:26:40;97494.09;;;16.26;45.61
61324;BME280;47203;48.428;11.974;2023-02-18T04:28:47;97490.63;;;16.25;45.80
61324;BME280;47203;48.428;11.974;2023-02-18T04:30:51;97489.34;;;16.22;45.79
61324;BME280;47203;48.428;11.974;2023-02-18T04:32:56;97479.00;;;16.21;45.93
61324;BME280;47203;48.428;11.974;2023-02-18T04:35:00;97483.50;;;16.20;45.79
61324;BME280;47203;48.428;11.974;2023-02-18T04:37:05;97488.03;;;16.20;45.78
61324;BME280;47203;48.428;11.974;2023-02-18T04:39:09;97492.28;;;16.21;45.76
61324;BME280;47203;48.428;11.974;2023-02-18T04:41:14;97492.00;;;16.22;45.92
61324;BME280;47203;48.428;11.974;2023-02-18T04:43:18;97491.72;;;16.24;45.57
61324;BME280;47203;48.428;11.974;2023-02-18T04:45:26;97494.09;;;16.26;45.77
61324;BME280;47203;48.428;11.974;2023-02-18T04:47:31;97500.72;;;16.28;45.77
61324;BME280;47203;48.428;11.974;2023-02-18T04:49:35;97498.34;;;16.27;45.89
61324;BME280;47203;48.428;11.974;2023-02-18T04:51:40;97499.91;;;16.28;45.53
61324;BME280;47203;48.428;11.974;2023-02-18T04:53:44;97500.19;;;16.26;45.98
61324;BME280;47203;48.428;11.974;2023-02-18T04:55:49;97498.59;;;16.25;45.77
61324;BME280;47203;48.428;11.974;2023-02-18T04:57:53;97503.41;;;16.23;46.05
61324;BME280;47203;48.428;11.974;2023-02-18T04:59:58;97504.75;;;16.20;45.91
61324;BME280;47203;48.428;11.974;2023-02-18T05:02:06;97494.72;;;16.17;45.97
61324;BME280;47203;48.428;11.974;2023-02-18T05:04:11;97506.13;;;16.18;45.82
61324;BME280;47203;48.428;11.974;2023-02-18T05:06:15;97506.63;;;16.20;45.94
61324;BME280;47203;48.428;11.974;2023-02-18T05:08:20;97498.38;;;16.21;46.05
61324;BME280;47203;48.428;11.974;2023-02-18T05:10:24;97506.06;;;16.23;45.88
61324;BME280;47203;48.428;11.974;2023-02-18T05:12:29;97504.19;;;16.23;45.54
61324;BME280;47203;48.428;11.974;2023-02-18T05:14:33;97493.84;;;16.22;46.05
61324;BME280;47203;48.428;11.974;2023-02-18T05:16:38;97497.88;;;16.19;46.09
61324;BME280;47203;48.428;11.974;2023-02-18T05:18:45;97502.38;;;16.19;45.75
61324;BME280;47203;48.428;11.974;2023-02-18T05:20:49;97501.03;;;16.21;45.77
61324;BME280;47203;48.428;11.974;2023-02-18T05:22:54;97497.81;;;16.25;45.77
61324;BME280;47203;48.428;11.974;2023-02-18T05:24:58;97501.78;;;16.27;45.95
61324;BME280;47203;48.428;11.974;2023-02-18T05:27:03;97504.16;;;16.29;45.50
61324;BME280;47203;48.428;11.974;2023-02-18T05:29:07;97501.22;;;16.30;45.86
61324;BME280;47203;48.428;11.974;2023-02-18T05:31:12;97502.00;;;16.31;45.92
61324;BME280;47203;48.428;11.974;2023-02-18T05:33:17;97491.91;;;16.33;45.79
61324;BME280;47203;48.428;11.974;2023-02-18T05:35:24;97494.56;;;16.33;45.71
61324;BME280;47203;48.428;11.974;2023-02-18T05:37:29;97488.16;;;16.34;45.54
61324;BME280;47203;48.428;11.974;2023-02-18T05:39:33;97495.06;;;16.35;45.49
61324;BME280;47203;48.428;11.974;2023-02-18T05:41:38;97489.47;;;16.36;45.91
61324;BME280;47203;48.428;11.974;2023-02-18T05:43:42;97492.94;;;16.37;45.82
61324;BME280;47203;48.428;11.974;2023-02-18T05:45:59;97492.66;;;16.38;45.90
61324;BME280;47203;48.428;11.974;2023-02-18T05:48:04;97481.72;;;16.40;45.60
61324;BME280;47203;48.428;11.974;2023-02-18T05:50:09;97483.28;;;16.41;45.43
61324;BME280;47203;48.428;11.974;2023-02-18T05:52:16;97476.13;;;16.42;45.33
61324;BME280;47203;48.428;11.974;2023-02-18T05:54:22;97476.13;;;16.42;45.67
61324;BME280;47203;48.428;11.974;2023-02-18T05:56:27;97474.53;;;16.40;45.39
61324;BME280;47203;48.428;11.974;2023-02-18T05:58:31;97475.59;;;16.39;45.66
61324;BME280;47203;48.428;11.974;2023-02-18T06:00:36;97480.13;;;16.39;45.41
61324;BME280;47203;48.428;11.974;2023-02-18T06:02:41;97486.25;;;16.39;45.91
61324;BME280;47203;48.428;11.974;2023-02-18T06:04:45;97489.69;;;16.40;45.67
61324;BME280;47203;48.428;11.974;2023-02-18T06:06:50;97485.16;;;16.40;45.64
61324;BME280;47203;48.428;11.974;2023-02-18T06:08:57;97492.06;;;16.42;45.55
61324;BME280;47203;48.428;11.974;2023-02-18T06:11:02;97494.22;;;16.39;45.82
61324;BME280;47203;48.428;11.974;2023-02-18T06:13:06;97494.50;;;16.38;45.84
61324;BME280;47203;48.428;11.974;2023-02-18T06:15:11;97495.31;;;16.38;45.51
61324;BME280;47203;48.428;11.974;2023-02-18T06:17:16;97498.44;;;16.40;45.39
61324;BME280;47203;48.428;11.974;2023-02-18T06:19:23;97502.41;;;16.43;45.85
61324;BME280;47203;48.428;11.974;2023-02-18T06:21:27;97500.25;;;16.45;45.61
61324;BME280;47203;48.428;11.974;2023-02-18T06:23:32;97505.28;;;16.47;45.47
61324;BME280;47203;48.428;11.974;2023-02-18T06:25:39;97507.44;;;16.45;45.44
61324;BME280;47203;48.428;11.974;2023-02-18T06:27:44;97511.69;;;16.46;45.63
61324;BME280;47203;48.428;11.974;2023-02-18T06:29:48;97517.00;;;16.46;45.31
61324;BME280;47203;48.428;11.974;2023-02-18T06:31:53;97526.53;;;16.47;45.50
61324;BME280;47203;48.428;11.974;2023-02-18T06:33:57;97522.81;;;16.48;45.46
61324;BME280;47203;48.428;11.974;2023-02-18T06:36:03;97521.75;;;16.49;45.77
61324;BME280;47203;48.428;11.974;2023-02-18T06:38:09;97521.47;;;16.50;45.46
61324;BME280;47203;48.428;11.974;2023-02-18T06:40:13;97509.25;;;16.49;45.35
61324;BME280;47203;48.428;11.974;2023-02-18T06:42:21;97511.91;;;16.49;45.64
61324;BME280;47203;48.428;11.974;2023-02-18T06:44:26;97515.91;;;16.47;45.64
61324;BME280;47203;48.428;11.974;2023-02-18T06:46:30;97513.53;;;16.45;45.37
61324;BME280;47203;48.428;11.974;2023-02-18T06:48:35;97514.34;;;16.46;45.64
61324;BME280;47203;48.428;11.974;2023-02-18T06:50:40;97501.06;;;16.46;45.72
61324;BME280;47203;48.428;11.974;2023-02-18T06:52:45;97492.81;;;16.47;45.51
61324;BME280;47203;48.428;11.974;2023-02-18T06:54:49;97501.56;;;16.48;45.46
61324;BME280;47203;48.428;11.974;2023-02-18T06:56:54;97498.63;;;16.49;45.42
61324;BME280;47203;48.428;11.974;2023-02-18T06:59:01;97508.47;;;16.49;45.36
61324;BME280;47203;48.428;11.974;2023-02-18T07:01:05;97512.69;;;16.50;45.46
61324;BME280;47203;48.428;11.974;2023-02-18T07:03:10;97508.47;;;16.49;45.44
61324;BME280;47203;48.428;11.974;2023-02-18T07:05:16;97515.63;;;16.48;45.49
61324;BME280;47203;48.428;11.974;2023-02-18T07:07:21;97511.13;;;16.49;45.68
61324;BME280;47203;48.428;11.974;2023-02-18T07:09:25;97503.16;;;16.49;45.86
61324;BME280;47203;48.428;11.974;2023-02-18T07:11:30;97501.84;;;16.46;45.39
61324;BME280;47203;48.428;11.974;2023-02-18T07:13:34;97497.59;;;16.45;45.37
61324;BME280;47203;48.428;11.974;2023-02-18T07:15:42;97502.13;;;16.45;45.49
61324;BME280;47203;48.428;11.974;2023-02-18T07:17:47;97496.56;;;16.41;45.60
61324;BME280;47203;48.428;11.974;2023-02-18T07:19:52;97501.09;;;16.40;45.88
61324;BME280;47203;48.428;11.974;2023-02-18T07:21:56;97495.31;;;16.38;45.50
61324;BME280;47203;48.428;11.974;2023-02-18T07:24:02;97500.38;;;16.35;45.71
61324;BME280;47203;48.428;11.974;2023-02-18T07:26:07;97504.38;;;16.32;45.72
61324;BME280;47203;48.428;11.974;2023-02-18T07:28:12;97502.28;;;16.29;45.61
61324;BME280;47203;48.428;11.974;2023-02-18T07:30:17;97496.97;;;16.29;45.87
61324;BME280;47203;48.428;11.974;2023-02-18T07:32:24;97504.09;;;16.34;45.78
61324;BME280;47203;48.428;11.974;2023-02-18T07:34:29;97499.06;;;16.32;45.74
61324;BME280;47203;48.428;11.974;2023-02-18T07:36:33;97505.97;;;16.33;45.68
61324;BME280;47203;48.428;11.974;2023-02-18T07:38:38;97504.34;;;16.37;45.64
61324;BME280;47203;48.428;11.974;2023-02-18T07:40:44;97497.16;;;16.38;45.62
61324;BME280;47203;48.428;11.974;2023-02-18T07:42:48;97498.75;;;16.39;45.58
61324;BME280;47203;48.428;11.974;2023-02-18T07:44:53;97501.88;;;16.41;45.58
61324;BME280;47203;48.428;11.974;2023-02-18T07:46:57;97497.38;;;16.42;45.85
61324;BME280;47203;48.428;11.974;2023-02-18T07:49:05;97493.91;;;16.41;45.49
61324;BME280;47203;48.428;11.974;2023-02-18T07:51:10;97489.41;;;16.42;45.69
61324;BME280;47203;48.428;11.974;2023-02-18T07:53:15;97494.16;;;16.45;45.94
61324;BME280;47203;48.428;11.974;2023-02-18T07:55:20;97478.22;;;16.45;45.93
61324;BME280;47203;48.428;11.974;2023-02-18T07:57:24;97486.97;;;16.45;45.54
61324;BME280;47203;48.428;11.974;2023-02-18T07:59:29;97484.31;;;16.45;45.68
61324;BME280;47203;48.428;11.974;2023-02-18T08:01:33;97484.31;;;16.45;45.72
61324;BME280;47203;48.428;11.974;2023-02-18T08:03:38;97475.03;;;16.43;45.87
61324;BME280;47203;48.428;11.974;2023-02-18T08:05:46;97472.66;;;16.41;45.56
61324;BME280;47203;48.428;11.974;2023-02-18T08:07:51;97478.78;;;16.42;45.79
61324;BME280;47203;48.428;11.974;2023-02-18T08:09:55;97484.09;;;16.42;45.73
61324;BME280;47203;48.428;11.974;2023-02-18T08:12:00;97466.06;;;16.38;46.06
61324;BME280;47203;48.428;11.974;2023-02-18T08:14:04;97459.94;;;16.38;45.74
61324;BME280;47203;48.428;11.974;2023-02-18T08:16:09;97463.41;;;16.38;45.69
61324;BME280;47203;48.428;11.974;2023-02-18T08:18:14;97469.50;;;16.39;45.64
61324;BME280;47203;48.428;11.974;2023-02-18T08:20:19;97447.47;;;16.38;45.98
61324;BME280;47203;48.428;11.974;2023-02-18T08:22:26;97451.69;;;16.39;45.96
61324;BME280;47203;48.428;11.974;2023-02-18T08:24:31;97454.59;;;16.43;45.83
61324;BME280;47203;48.428;11.974;2023-02-18T08:26:35;97454.03;;;16.46;45.84
61324;BME280;47203;48.428;11.974;2023-02-18T08:28:58;97452.38;;;16.50;46.01
61324;BME280;47203;48.428;11.974;2023-02-18T08:31:03;97446.50;;;16.53;45.92
61324;BME280;47203;48.428;11.974;2023-02-18T08:33:07;97463.75;;;16.56;46.02
61324;BME280;47203;48.428;11.974;2023-02-18T08:35:12;97451.25;;;16.56;45.98
61324;BME280;47203;48.428;11.974;2023-02-18T08:37:17;97458.63;;;16.60;45.99
61324;BME280;47203;48.428;11.974;2023-02-18T08:39:24;97463.38;;;16.63;45.82
61324;BME280;47203;48.428;11.974;2023-02-18T08:41:28;97467.63;;;16.64;45.84
61324;BME280;47203;48.428;11.974;2023-02-18T08:43:33;97462.03;;;16.65;46.08
61324;BME280;47203;48.428;11.974;2023-02-18T08:45:38;97451.59;;;16.69;45.77
61324;BME280;47203;48.428;11.974;2023-02-18T08:47:43;97463.25;;;16.73;46.04
61324;BME280;47203;48.428;11.974;2023-02-18T08:50:08;97462.97;;;16.74;45.61
61324;BME280;47203;48.428;11.974;2023-02-18T08:52:12;97456.00;;;16.79;45.74
61324;BME280;47203;48.428;11.974;2023-02-18T08:54:17;97458.16;;;16.77;45.55
61324;BME280;47203;48.428;11.974;2023-02-18T08:56:25;97456.09;;;16.73;45.87
61324;BME280;47203;48.428;11.974;2023-02-18T08:58:30;97458.16;;;16.77;45.76
61324;BME280;47203;48.428;11.974;2023-02-18T09:00:38;97456.59;;;16.75;45.72
61324;BME280;47203;48.428;11.974;2023-02-18T09:02:43;97460.84;;;16.77;45.72
61324;BME280;47203;48.428;11.974;2023-02-18T09:04:48;97465.34;;;16.76;45.86
61324;BME280;47203;48.428;11.974;2023-02-18T09:06:52;97460.03;;;16.76;45.77
61324;BME280;47203;48.428;11.974;2023-02-18T09:08:57;97444.59;;;16.78;45.95
61324;BME280;47203;48.428;11.974;2023-02-18T09:11:02;97456.53;;;16.81;45.97
61324;BME280;47203;48.428;11.974;2023-02-18T09:13:11;97455.16;;;16.83;45.90
61324;BME280;47203;48.428;11.974;2023-02-18T09:15:16;97443.72;;;16.83;45.98
61324;BME280;47203;48.428;11.974;2023-02-18T09:17:21;97442.66;;;16.84;45.94
61324;BME280;47203;48.428;11.974;2023-02-18T09:19:25;97434.91;;;16.87;45.94
61324;BME280;47203;48.428;11.974;2023-02-18T09:21:30;97432.78;;;16.89;45.72
61324;BME280;47203;48.428;11.974;2023-02-18T09:23:35;97424.22;;;16.92;46.01
61324;BME280;47203;48.428;11.974;2023-02-18T09:25:39;97429.75;;;16.96;46.00
61324;BME280;47203;48.428;11.974;2023-02-18T09:27:44;97425.72;;;16.99;45.72
61324;BME280;47203;48.428;11.974;2023-02-18T09:29:52;97431.25;;;17.02;45.64
61324;BME280;47203;48.428;11.974;2023-02-18T09:31:58;97429.88;;;17.05;45.83
61324;BME280;47203;48.428;11.974;2023-02-18T09:34:03;97427.16;;;17.10;45.85
61324;BME280;47203;48.428;11.974;2023-02-18T09:36:08;97440.66;;;17.14;45.81
61324;BME280;47203;48.428;11.974;2023-02-18T09:38:14;97410.63;;;17.13;45.64
61324;BME280;47203;48.428;11.974;2023-02-18T09:40:20;97402.84;;;17.17;45.77
61324;BME280;47203;48.428;11.974;2023-02-18T09:42:29;97412.13;;;17.19;45.73
61324;BME280;47203;48.428;11.974;2023-02-18T09:44:37;97407.81;;;17.23;46.01
61324;BME280;47203;48.428;11.974;2023-02-18T09:46:47;97419.44;;;17.27;45.97
61324;BME280;47203;48.428;11.974;2023-02-18T09:48:53;97405.03;;;17.28;45.58
61324;BME280;47203;48.428;11.974;2023-02-18T09:50:59;97412.75;;;17.30;45.77
61324;BME280;47203;48.428;11.974;2023-02-18T09:53:03;97410.06;;;17.30;45.71
61324;BME280;47203;48.428;11.974;2023-02-18T09:55:15;97413.84;;;17.29;45.96
61324;BME280;47203;48.428;11.974;2023-02-18T09:57:21;97407.72;;;17.28;45.72
61324;BME280;47203;48.428;11.974;2023-02-18T09:59:27;97407.13;;;17.32;45.81
61324;BME280;47203;48.428;11.974;2023-02-18T10:01:33;97410.78;;;17.36;45.54
61324;BME280;47203;48.428;11.974;2023-02-18T10:03:42;97410.72;;;17.41;45.75
61324;BME280;47203;48.428;11.974;2023-02-18T10:05:50;97405.28;;;17.46;45.70
61324;BME280;47203;48.428;11.974;2023-02-18T10:07:57;97395.16;;;17.48;45.80
61324;BME280;47203;48.428;11.974;2023-02-18T10:10:10;97402.34;;;17.48;45.80
61324;BME280;47203;48.428;11.974;2023-02-18T10:12:19;97377.03;;;17.50;45.30
61324;BME280;47203;48.428;11.974;2023-02-18T10:14:25;97395.88;;;17.54;45.71
61324;BME280;47203;48.428;11.974;2023-02-18T10:16:30;97389.66;;;17.58;45.55
61324;BME280;47203;48.428;11.974;2023-02-18T10:18:37;97392.34;;;17.58;45.57
61324;BME280;47203;48.428;11.974;2023-02-18T10:20:45;97383.53;;;17.58;45.31
61324;BME280;47203;48.428;11.974;2023-02-18T10:22:51;97381.38;;;17.60;45.71
61324;BME280;47203;48.428;11.974;2023-02-18T10:24:56;97380.03;;;17.62;45.44
61324;BME280;47203;48.428;11.974;2023-02-18T10:27:03;97369.38;;;17.62;45.47
61324;BME280;47203;48.428;11.974;2023-02-18T10:29:08;97362.16;;;17.63;45.27
61324;BME280;47203;48.428;11.974;2023-02-18T10:31:17;97350.75;;;17.62;45.54
61324;BME280;47203;48.428;11.974;2023-02-18T10:33:31;97369.78;;;17.70;45.79
61324;BME280;47203;48.428;11.974;2023-02-18T10:35:37;97341.28;;;17.70;45.57
61324;BME280;47203;48.428;11.974;2023-02-18T10:37:53;97339.09;;;17.72;45.63
61324;BME280;47203;48.428;11.974;2023-02-18T10:40:05;97322.03;;;17.73;45.52
61324;BME280;47203;48.428;11.974;2023-02-18T10:42:16;97332.31;;;17.80;45.74
61324;BME280;47203;48.428;11.974;2023-02-18T10:44:23;97328.16;;;17.88;45.66
61324;BME280;47203;48.428;11.974;2023-02-18T10:46:32;97321.97;;;17.92;45.40
61324;BME280;47203;48.428;11.974;2023-02-18T10:48:48;97320.28;;;17.96;45.30
61324;BME280;47203;48.428;11.974;2023-02-18T10:50:57;97321.47;;;18.04;45.44
61324;BME280;47203;48.428;11.974;2023-02-18T10:53:10;97305.88;;;18.11;45.41
61324;BME280;47203;48.428;11.974;2023-02-18T10:55:17;97323.84;;;18.20;45.07
61324;BME280;47203;48.428;11.974;2023-02-18T10:57:22;97315.72;;;18.25;45.42
61324;BME280;47203;48.428;11.974;2023-02-18T10:59:30;97311.19;;;18.25;45.54
61324;BME280;47203;48.428;11.974;2023-02-18T11:01:35;97305.72;;;18.30;45.43
61324;BME280;47203;48.428;11.974;2023-02-18T11:03:41;97310.97;;;18.36;45.41
61324;BME280;47203;48.428;11.974;2023-02-18T11:05:47;97309.56;;;18.38;45.04